Time;durP1;ratioP1;P1;durP2;ratioP2;P2;SDS_P1;SDS_P2;PMS_P1;PMS_P2;Temp;Humidity;BMP_temperature;BMP_pressure;BME280_temperature;BME280_humidity;BME280_pressure;Samples;Min_cycle;Max_cycle;Signal;HPM_P1;HPM_P2
2020/12/29 00:00:58;;;;;;;1.00;0.77;;;;;;;15.74;52.66;98117.63;5092829;28;20023;-75
2020/12/29 00:03:24;;;;;;;1.27;0.70;;;;;;;15.75;52.96;98116.75;5093456;28;20558;-75
2020/12/29 00:05:50;;;;;;;0.90;0.63;;;;;;;15.75;52.56;98116.75;5094250;28;20016;-75
2020/12/29 00:08:15;;;;;;;0.98;0.80;;;;;;;15.72;52.49;98115.13;5088814;28;20032;-76
2020/12/29 00:10:41;;;;;;;0.85;0.63;;;;;;;15.73;52.65;98118.56;5093837;28;20126;-75
2020/12/29 00:13:08;;;;;;;0.90;0.70;;;;;;;15.71;52.71;98115.16;5076121;28;20028;-75
2020/12/29 00:15:33;;;;;;;1.30;0.80;;;;;;;15.71;52.86;98115.16;5058107;28;20035;-75
2020/12/29 00:17:59;;;;;;;1.20;0.80;;;;;;;15.71;52.83;98122.94;5088572;28;20044;-75
2020/12/29 00:20:25;;;;;;;1.35;0.85;;;;;;;15.70;52.72;98123.81;5089878;28;20062;-76
2020/12/29 00:22:50;;;;;;;1.00;0.70;;;;;;;15.70;52.63;98121.25;5086968;28;20487;-76
2020/12/29 00:25:20;;;;;;;0.77;0.68;;;;;;;15.69;52.57;98120.41;5073242;28;20382;-76
2020/12/29 00:27:45;;;;;;;0.90;0.70;;;;;;;15.68;52.76;98118.75;5093633;28;20024;-75
2020/12/29 00:30:11;;;;;;;1.05;0.75;;;;;;;15.69;52.93;98129.94;5088819;28;20419;-76
2020/12/29 00:32:36;;;;;;;0.95;0.75;;;;;;;15.68;52.89;98123.06;5088445;28;20024;-76
2020/12/29 00:35:02;;;;;;;0.82;0.70;;;;;;;15.67;52.53;98122.22;5093074;28;20476;-76
2020/12/29 00:37:28;;;;;;;1.05;0.77;;;;;;;15.68;52.81;98128.25;5071506;28;20032;-76
2020/12/29 00:39:53;;;;;;;1.50;0.90;;;;;;;15.68;52.69;98130.84;5082512;28;20030;-76
2020/12/29 00:42:18;;;;;;;0.77;0.70;;;;;;;15.68;52.76;98129.09;5089479;28;20040;-75
2020/12/29 00:44:44;;;;;;;1.23;0.70;;;;;;;15.67;52.82;98131.75;5091125;28;20386;-75
2020/12/29 00:47:09;;;;;;;1.10;0.80;;;;;;;15.67;52.65;98132.59;5074685;28;20115;-76
2020/12/29 00:49:37;;;;;;;2.03;0.63;;;;;;;15.66;52.71;98124.88;5054880;28;20073;-76
2020/12/29 00:52:02;;;;;;;0.80;0.65;;;;;;;15.67;52.66;98123.97;5079596;28;20071;-76
2020/12/29 00:54:28;;;;;;;1.10;0.70;;;;;;;15.66;52.80;98124.88;5078878;28;20031;-75
2020/12/29 00:56:53;;;;;;;1.05;0.70;;;;;;;15.64;52.77;98123.22;5099828;28;20085;-75
2020/12/29 00:59:19;;;;;;;0.75;0.60;;;;;;;15.64;52.68;98128.38;5071753;28;20052;-75
2020/12/29 01:01:46;;;;;;;0.80;0.70;;;;;;;15.64;52.91;98127.56;5090569;28;20382;-75
2020/12/29 01:04:12;;;;;;;1.55;0.88;;;;;;;15.64;52.69;98132.75;5091251;28;20028;-75
2020/12/29 01:06:37;;;;;;;0.82;0.70;;;;;;;15.64;52.85;98135.34;5091515;28;20081;-75
2020/12/29 01:09:05;;;;;;;0.70;0.60;;;;;;;15.64;52.68;98130.16;5092145;28;20036;-75
2020/12/29 01:11:31;;;;;;;1.17;0.80;;;;;;;15.63;53.08;98137.09;5061916;28;20036;-75
2020/12/29 01:13:57;;;;;;;1.00;0.70;;;;;;;15.62;52.79;98134.56;5081549;28;20028;-75
2020/12/29 01:16:22;;;;;;;0.88;0.77;;;;;;;15.62;52.84;98143.16;5088130;28;20032;-75
2020/12/29 01:18:48;;;;;;;1.00;0.75;;;;;;;15.63;52.82;98136.22;5055394;28;20045;-75
2020/12/29 01:21:13;;;;;;;0.70;0.70;;;;;;;15.63;52.83;98142.28;5088968;28;20488;-75
2020/12/29 01:23:39;;;;;;;1.30;0.95;;;;;;;15.62;52.70;98142.34;5091393;28;20032;-75
2020/12/29 01:26:04;;;;;;;1.35;0.90;;;;;;;15.62;52.80;98150.13;5093172;28;20031;-76
2020/12/29 01:28:29;;;;;;;0.90;0.70;;;;;;;15.62;52.76;98150.13;5088657;28;20062;-76
2020/12/29 01:30:55;;;;;;;1.65;0.93;;;;;;;15.62;52.64;98152.69;5083144;28;20025;-76
2020/12/29 01:33:20;;;;;;;1.30;0.90;;;;;;;15.61;52.71;98153.59;5086350;28;20032;-76
2020/12/29 01:35:46;;;;;;;1.05;0.75;;;;;;;15.60;52.85;98157.94;5092204;28;20130;-76
2020/12/29 01:38:11;;;;;;;0.95;0.80;;;;;;;15.61;52.62;98161.38;5095666;28;20093;-76
2020/12/29 01:40:37;;;;;;;1.40;0.75;;;;;;;15.60;52.72;98160.53;5090286;28;20023;-76
2020/12/29 01:43:03;;;;;;;1.27;0.80;;;;;;;15.60;52.63;98157.94;5088816;28;20089;-76
2020/12/29 01:45:31;;;;;;;1.40;0.80;;;;;;;15.61;52.73;98174.34;5097814;28;20064;-76
2020/12/29 01:47:57;;;;;;;1.33;0.85;;;;;;;15.59;52.73;98173.56;5094151;28;20039;-76
2020/12/29 01:50:24;;;;;;;0.82;0.60;;;;;;;15.59;52.67;98170.97;5078222;28;20035;-76
2020/12/29 01:53:01;;;;;;;1.40;0.80;;;;;;;15.59;52.55;98176.16;5077064;28;20526;-76
2020/12/29 01:55:27;;;;;;;1.00;0.80;;;;;;;15.59;52.64;98176.16;5094504;28;20036;-75
2020/12/29 01:57:54;;;;;;;1.52;0.90;;;;;;;15.59;52.68;98179.59;5094173;28;20024;-75
2020/12/29 02:00:19;;;;;;;0.80;0.70;;;;;;;15.59;52.55;98183.94;5094789;28;20035;-75
2020/12/29 02:02:48;;;;;;;1.27;0.82;;;;;;;15.57;52.58;98185.75;5087082;28;20028;-75
2020/12/29 02:05:14;;;;;;;1.20;0.90;;;;;;;15.57;52.87;98181.44;5087961;28;20106;-75
2020/12/29 02:07:40;;;;;;;1.10;0.77;;;;;;;15.58;52.63;98188.28;5090837;28;20485;-75
2020/12/29 02:10:05;;;;;;;1.30;0.90;;;;;;;15.57;52.67;98183.16;5043213;28;20462;-75
2020/12/29 02:12:36;;;;;;;1.05;0.80;;;;;;;15.57;52.72;98184.03;5078976;28;20109;-75
2020/12/29 02:15:08;;;;;;;1.50;0.80;;;;;;;15.56;52.40;98182.31;5080769;28;20025;-75
2020/12/29 02:17:35;;;;;;;2.03;0.80;;;;;;;15.56;52.63;98190.09;5094114;28;20036;-75
2020/12/29 02:20:00;;;;;;;0.82;0.65;;;;;;;15.56;52.67;98186.66;5099206;28;20024;-76
2020/12/29 02:22:27;;;;;;;1.52;1.05;;;;;;;15.56;52.53;98191.84;5090475;28;20036;-76
2020/12/29 02:24:54;;;;;;;0.90;0.75;;;;;;;15.55;52.21;98193.59;5093939;28;20024;-76
2020/12/29 02:27:20;;;;;;;1.13;0.68;;;;;;;15.55;52.68;98191.00;5096042;28;20032;-76
2020/12/29 02:29:47;;;;;;;1.63;0.80;;;;;;;15.56;52.40;98200.47;5095190;28;20030;-76
2020/12/29 02:32:12;;;;;;;1.10;0.90;;;;;;;15.58;52.61;98203.81;5062890;28;20036;-76
2020/12/29 02:34:39;;;;;;;1.20;0.80;;;;;;;15.61;52.53;98193.34;5089343;28;20371;-76
2020/12/29 02:37:06;;;;;;;1.10;0.75;;;;;;;15.60;52.31;98191.66;5092265;28;20028;-76
2020/12/29 02:39:33;;;;;;;1.05;0.70;;;;;;;15.63;52.36;98198.44;5092441;28;20039;-76
2020/12/29 02:41:59;;;;;;;1.02;0.80;;;;;;;15.65;52.38;98201.81;5095580;28;20031;-76
2020/12/29 02:44:25;;;;;;;0.88;0.70;;;;;;;15.66;52.33;98205.25;5076217;28;20093;-76
2020/12/29 02:46:51;;;;;;;1.55;0.70;;;;;;;15.66;52.48;98208.69;5094053;28;20028;-76
2020/12/29 02:49:17;;;;;;;1.15;0.70;;;;;;;15.67;52.51;98207.78;5096149;28;20028;-76
2020/12/29 02:51:43;;;;;;;1.30;0.82;;;;;;;15.68;52.49;98213.78;5077060;28;20114;-76
2020/12/29 02:54:13;;;;;;;0.98;0.80;;;;;;;15.69;52.38;98211.16;5094678;28;20028;-76
2020/12/29 02:56:39;;;;;;;1.17;0.77;;;;;;;15.70;52.47;98211.97;5091606;28;20028;-76
2020/12/29 02:59:05;;;;;;;1.38;0.80;;;;;;;15.70;52.21;98210.25;5095738;28;20031;-76
2020/12/29 03:01:30;;;;;;;1.30;0.75;;;;;;;15.70;52.28;98207.66;5088824;28;20024;-76
2020/12/29 03:03:55;;;;;;;0.90;0.65;;;;;;;15.71;52.42;98211.09;5070016;28;20038;-76
2020/12/29 03:06:22;;;;;;;0.80;0.65;;;;;;;15.72;52.20;98218.84;5090252;28;20038;-76
2020/12/29 03:08:48;;;;;;;1.00;0.70;;;;;;;15.73;52.04;98219.69;5095159;28;20028;-76
2020/12/29 03:11:14;;;;;;;1.15;0.70;;;;;;;15.74;52.32;98221.34;5093410;28;20359;-76
2020/12/29 03:13:39;;;;;;;1.20;0.82;;;;;;;15.75;52.34;98225.63;5088962;28;20039;-76
2020/12/29 03:16:04;;;;;;;1.33;0.75;;;;;;;15.75;52.06;98233.41;5076560;28;20504;-76
2020/12/29 03:18:30;;;;;;;1.00;0.70;;;;;;;15.75;52.16;98236.84;5095120;28;20040;-76
2020/12/29 03:20:55;;;;;;;1.00;0.70;;;;;;;15.77;52.23;98236.78;5093485;28;20036;-76
2020/12/29 03:23:20;;;;;;;0.88;0.68;;;;;;;15.76;52.22;98233.31;5072857;28;20036;-76
2020/12/29 03:25:46;;;;;;;0.77;0.60;;;;;;;15.77;52.23;98241.97;5089329;28;20057;-76
2020/12/29 03:28:11;;;;;;;1.48;0.60;;;;;;;15.78;52.21;98248.81;5085393;28;20078;-76
2020/12/29 03:30:36;;;;;;;0.82;0.70;;;;;;;15.78;52.14;98244.47;5094269;28;20047;-76
2020/12/29 03:33:02;;;;;;;0.95;0.52;;;;;;;15.78;52.30;98248.81;5049655;28;20035;-76
2020/12/29 03:35:27;;;;;;;1.25;0.80;;;;;;;15.78;52.06;98249.66;5058234;28;20052;-76
2020/12/29 03:37:52;;;;;;;0.63;0.55;;;;;;;15.79;52.13;98261.75;5061531;28;20413;-76
2020/12/29 03:40:18;;;;;;;1.48;0.65;;;;;;;15.79;52.36;98256.56;5091215;28;20551;-76
2020/12/29 03:42:43;;;;;;;1.08;0.70;;;;;;;15.79;51.96;98260.91;5092337;28;20085;-76
2020/12/29 03:45:08;;;;;;;0.80;0.60;;;;;;;15.79;52.03;98263.50;5077117;28;20028;-76
2020/12/29 03:47:34;;;;;;;1.02;0.73;;;;;;;15.77;52.17;98258.38;5103410;28;20029;-76
2020/12/29 03:49:59;;;;;;;0.70;0.60;;;;;;;15.76;52.50;98261.00;5093345;28;20042;-76
2020/12/29 03:52:24;;;;;;;0.90;0.80;;;;;;;15.75;52.57;98265.38;5091780;28;20038;-76
2020/12/29 03:54:50;;;;;;;0.80;0.60;;;;;;;15.74;52.44;98263.69;5063326;28;20402;-75
2020/12/29 03:57:15;;;;;;;0.80;0.70;;;;;;;15.72;52.42;98273.28;5090154;28;20390;-75
2020/12/29 03:59:40;;;;;;;0.98;0.63;;;;;;;15.72;52.25;98270.69;5076590;28;20036;-75
2020/12/29 04:02:09;;;;;;;0.80;0.70;;;;;;;15.71;52.66;98265.53;5075055;28;20036;-75
2020/12/29 04:04:34;;;;;;;1.10;0.80;;;;;;;15.70;52.56;98271.63;5094072;28;20028;-74
2020/12/29 04:07:00;;;;;;;1.00;0.63;;;;;;;15.69;52.42;98275.97;5105066;28;20180;-75
2020/12/29 04:09:29;;;;;;;1.00;0.65;;;;;;;15.70;52.55;98279.38;5100409;28;20085;-75
2020/12/29 04:11:55;;;;;;;0.80;0.70;;;;;;;15.69;52.69;98277.72;5075773;28;20475;-75
2020/12/29 04:14:20;;;;;;;0.93;0.70;;;;;;;15.67;52.54;98288.16;5078962;28;20030;-75
2020/12/29 04:16:45;;;;;;;1.10;0.70;;;;;;;15.68;52.59;98286.38;5088483;28;20448;-75
2020/12/29 04:19:11;;;;;;;0.77;0.70;;;;;;;15.68;52.58;98291.56;5089900;28;20054;-75
2020/12/29 04:21:39;;;;;;;0.70;0.68;;;;;;;15.66;52.63;98289.06;5075478;28;20478;-75
2020/12/29 04:24:04;;;;;;;0.77;0.63;;;;;;;15.67;52.33;98295.09;5091877;28;20039;-75
2020/12/29 04:26:30;;;;;;;0.63;0.52;;;;;;;15.66;52.57;98302.03;5075246;28;20101;-75
2020/12/29 04:28:55;;;;;;;1.00;0.80;;;;;;;15.66;52.76;98301.16;5055629;28;20529;-75
2020/12/29 04:31:23;;;;;;;0.75;0.60;;;;;;;15.64;52.61;98309.84;5074362;28;20063;-76
2020/12/29 04:33:48;;;;;;;0.68;0.60;;;;;;;15.64;52.64;98309.84;5092172;28;20474;-76
2020/12/29 04:36:14;;;;;;;1.00;0.77;;;;;;;15.64;52.65;98312.44;5089684;28;20119;-76
2020/12/29 04:38:39;;;;;;;0.85;0.68;;;;;;;15.64;52.74;98319.41;5074945;28;20034;-76
2020/12/29 04:41:05;;;;;;;0.68;0.60;;;;;;;15.65;52.42;98318.47;5071326;28;20050;-76
2020/12/29 04:43:32;;;;;;;0.90;0.60;;;;;;;15.64;52.61;98319.41;5081162;28;20474;-76
2020/12/29 04:46:00;;;;;;;0.80;0.60;;;;;;;15.63;52.54;98323.75;5093974;28;20032;-76
2020/12/29 04:48:27;;;;;;;1.45;0.80;;;;;;;15.63;52.90;98320.28;5090613;28;20020;-75
2020/12/29 04:51:00;;;;;;;0.60;0.57;;;;;;;15.62;52.69;98323.81;5092895;28;20016;-75
2020/12/29 04:53:29;;;;;;;0.88;0.68;;;;;;;15.62;52.66;98328.97;5074463;28;20051;-75
2020/12/29 04:56:00;;;;;;;1.55;0.60;;;;;;;15.62;52.66;98331.56;5090958;28;20032;-75
2020/12/29 04:58:28;;;;;;;1.90;0.60;;;;;;;15.63;52.62;98338.44;5087704;28;20391;-75
2020/12/29 05:00:54;;;;;;;0.68;0.60;;;;;;;15.62;52.69;98337.59;5091763;28;20051;-75
2020/12/29 05:03:20;;;;;;;0.85;0.60;;;;;;;15.62;52.74;98345.38;5075641;28;20036;-75
2020/12/29 05:05:45;;;;;;;1.15;0.60;;;;;;;15.61;52.52;98343.69;5091164;28;20054;-75
2020/12/29 05:08:10;;;;;;;0.73;0.60;;;;;;;15.61;52.51;98348.88;5092067;28;20028;-75
2020/12/29 05:10:47;;;;;;;0.80;0.60;;;;;;;15.61;52.45;98348.88;5072295;28;20052;-75
2020/12/29 05:13:13;;;;;;;0.73;0.60;;;;;;;15.61;52.59;98353.19;5074207;28;20029;-75
2020/12/29 05:15:38;;;;;;;0.70;0.50;;;;;;;15.60;52.50;98357.56;5071874;28;20024;-75
2020/12/29 05:18:03;;;;;;;0.80;0.60;;;;;;;15.60;52.47;98357.56;5088184;28;20108;-75
2020/12/29 05:20:33;;;;;;;0.63;0.60;;;;;;;15.60;52.70;98364.50;5075500;28;20098;-75
2020/12/29 05:22:59;;;;;;;0.82;0.50;;;;;;;15.61;52.54;98366.16;5082253;28;20065;-75
2020/12/29 05:25:24;;;;;;;1.05;0.60;;;;;;;15.60;52.52;98364.50;5074900;28;20044;-75
2020/12/29 05:27:50;;;;;;;0.68;0.52;;;;;;;15.60;52.57;98372.28;5074665;28;20028;-75
2020/12/29 05:30:17;;;;;;;0.40;0.40;;;;;;;15.59;52.57;98368.84;5083769;28;20024;-75
2020/12/29 05:32:43;;;;;;;1.02;0.70;;;;;;;15.59;52.45;98367.97;5092900;28;20031;-75
2020/12/29 05:35:13;;;;;;;0.93;0.60;;;;;;;15.58;52.65;98374.91;5084555;28;20035;-75
2020/12/29 05:37:41;;;;;;;0.70;0.50;;;;;;;15.59;52.60;98379.22;5091835;28;20032;-75
2020/12/29 05:40:25;;;;;;;0.52;0.43;;;;;;;15.58;52.47;98377.50;5091408;28;20028;-75
2020/12/29 05:42:54;;;;;;;1.20;0.60;;;;;;;15.58;52.69;98377.50;5092634;28;20501;-75
2020/12/29 05:45:20;;;;;;;0.98;0.57;;;;;;;15.58;52.48;98380.09;5092620;28;20416;-75
2020/12/29 05:47:52;;;;;;;0.95;0.55;;;;;;;15.59;52.65;98380.94;5092651;28;20021;-75
2020/12/29 05:50:19;;;;;;;0.65;0.50;;;;;;;15.57;52.56;98385.34;5080936;28;20112;-75
2020/12/29 05:52:50;;;;;;;0.65;0.60;;;;;;;15.56;52.55;98381.06;5090597;28;20470;-75
2020/12/29 05:55:16;;;;;;;0.90;0.60;;;;;;;15.56;52.50;98387.09;5079319;28;20414;-75
2020/12/29 05:57:41;;;;;;;0.88;0.60;;;;;;;15.56;52.41;98391.44;5074329;28;20032;-75
2020/12/29 06:00:07;;;;;;;0.45;0.43;;;;;;;15.56;52.40;98387.09;5091039;28;20085;-75
2020/12/29 06:02:32;;;;;;;1.13;0.52;;;;;;;15.57;52.90;98390.53;5090972;28;20060;-75
2020/12/29 06:04:59;;;;;;;0.85;0.50;;;;;;;15.56;52.49;98392.28;5090872;28;20032;-75
2020/12/29 06:07:26;;;;;;;0.90;0.60;;;;;;;15.55;52.47;98392.38;5091954;28;20024;-75
2020/12/29 06:09:54;;;;;;;0.75;0.68;;;;;;;15.55;52.57;98394.97;5091097;28;20114;-75
2020/12/29 06:12:32;;;;;;;0.47;0.47;;;;;;;15.56;52.54;98400.06;5089782;28;20371;-75
2020/12/29 06:14:58;;;;;;;0.60;0.40;;;;;;;15.55;52.36;98402.72;5072808;28;20111;-75
2020/12/29 06:17:32;;;;;;;0.52;0.50;;;;;;;15.56;52.12;98407.00;5083617;28;20028;-75
2020/12/29 06:20:05;;;;;;;1.08;0.50;;;;;;;15.54;52.41;98401.88;5091409;28;20043;-75
2020/12/29 06:22:31;;;;;;;0.88;0.60;;;;;;;15.54;52.38;98399.28;5096572;28;20110;-75
2020/12/29 06:24:57;;;;;;;0.73;0.60;;;;;;;15.55;52.45;98406.16;5095490;28;20028;-75
2020/12/29 06:27:30;;;;;;;1.20;0.60;;;;;;;15.55;52.32;98405.31;5094937;28;20378;-75
2020/12/29 06:29:56;;;;;;;0.90;0.50;;;;;;;15.55;52.23;98418.28;5087734;28;20048;-75
2020/12/29 06:32:25;;;;;;;0.43;0.40;;;;;;;15.55;52.28;98423.47;5093655;28;20024;-74
2020/12/29 06:34:50;;;;;;;0.95;0.57;;;;;;;15.57;52.37;98422.50;5093336;28;20402;-75
2020/12/29 06:37:34;;;;;;;0.63;0.50;;;;;;;15.59;52.41;98431.06;5094931;28;20024;-75
2020/12/29 06:40:04;;;;;;;1.15;0.50;;;;;;;15.61;52.22;98430.97;5090762;28;20032;-75
2020/12/29 06:42:30;;;;;;;0.68;0.50;;;;;;;15.61;52.17;98439.63;5094750;28;20020;-75
2020/12/29 06:44:56;;;;;;;0.40;0.40;;;;;;;15.63;52.00;98436.94;5091388;28;20058;-75
2020/12/29 06:47:24;;;;;;;0.50;0.43;;;;;;;15.64;52.12;98441.25;5066927;28;20178;-75
2020/12/29 06:49:50;;;;;;;0.63;0.50;;;;;;;15.64;52.20;98443.84;5076785;28;20103;-75
2020/12/29 06:52:23;;;;;;;0.80;0.60;;;;;;;15.66;52.16;98444.63;5077490;28;20115;-75
2020/12/29 06:54:52;;;;;;;0.80;0.50;;;;;;;15.67;52.30;98442.88;5085697;28;20149;-75
2020/12/29 06:57:23;;;;;;;0.65;0.50;;;;;;;15.68;52.09;98448.00;5083702;28;20763;-76
2020/12/29 06:59:48;;;;;;;0.65;0.50;;;;;;;15.68;52.13;98453.19;5078235;28;20036;-76
2020/12/29 07:02:18;;;;;;;0.75;0.50;;;;;;;15.70;52.07;98458.28;5087899;28;20039;-76
2020/12/29 07:04:52;;;;;;;0.40;0.40;;;;;;;15.70;52.06;98458.28;5096168;28;20028;-76
2020/12/29 07:07:21;;;;;;;;;;;;;;;15.71;51.98;98465.19;5094183;28;20024;-75
2020/12/29 07:09:46;;;;;;;0.40;0.40;;;;;;;15.71;52.10;98475.56;5095585;28;20008;-75
2020/12/29 07:12:12;;;;;;;0.75;0.43;;;;;;;15.72;51.90;98472.06;5074294;28;20059;-76
2020/12/29 07:14:37;;;;;;;0.57;0.45;;;;;;;15.73;51.88;98479.78;5056674;28;20024;-76
2020/12/29 07:17:07;;;;;;;0.93;0.50;;;;;;;15.73;52.01;98479.78;5078187;28;20032;-76
2020/12/29 07:19:37;;;;;;;0.38;0.38;;;;;;;15.73;52.10;98479.78;5070938;28;20375;-76
2020/12/29 07:22:10;;;;;;;0.80;0.40;;;;;;;15.74;52.05;98484.09;5090852;28;20027;-75
2020/12/29 07:24:36;;;;;;;0.75;0.40;;;;;;;15.75;52.11;98492.72;5093308;28;20059;-75
2020/12/29 07:27:03;;;;;;;0.75;0.40;;;;;;;15.75;51.98;98492.72;5095543;28;20127;-76
2020/12/29 07:29:28;;;;;;;0.40;0.40;;;;;;;15.75;52.11;98495.31;5092850;28;20058;-75
2020/12/29 07:31:59;;;;;;;0.70;0.57;;;;;;;15.76;52.14;98499.56;5093130;28;20027;-75
2020/12/29 07:34:29;;;;;;;0.80;0.60;;;;;;;15.77;52.08;98501.28;5087671;28;20027;-75
2020/12/29 07:36:56;;;;;;;0.55;0.40;;;;;;;15.75;51.95;98506.50;5095104;28;20355;-75
2020/12/29 07:39:21;;;;;;;0.43;0.40;;;;;;;15.76;52.00;98513.38;5093086;28;20089;-75
2020/12/29 07:41:46;;;;;;;0.50;0.40;;;;;;;15.78;51.89;98516.75;5077285;28;20118;-76
2020/12/29 07:44:12;;;;;;;0.65;0.40;;;;;;;15.78;52.04;98518.50;5094346;28;20036;-76
2020/12/29 07:46:37;;;;;;;0.60;0.50;;;;;;;15.78;51.74;98527.13;5081160;28;20047;-76
2020/12/29 07:49:05;;;;;;;0.93;0.50;;;;;;;15.79;52.02;98536.63;5095443;28;20486;-76
2020/12/29 07:51:44;;;;;;;0.73;0.40;;;;;;;15.80;52.08;98537.44;5092818;28;20038;-76
2020/12/29 07:54:10;;;;;;;0.40;0.40;;;;;;;15.80;51.90;98534.84;5092311;28;20031;-76
2020/12/29 07:56:35;;;;;;;0.45;0.45;;;;;;;15.81;52.20;98539.16;5076421;28;20071;-76
2020/12/29 07:59:10;;;;;;;0.50;0.43;;;;;;;15.80;52.13;98546.06;5074651;28;20024;-76
2020/12/29 08:01:55;;;;;;;0.80;0.43;;;;;;;15.80;52.07;98556.44;5087618;28;20032;-76
2020/12/29 08:04:25;;;;;;;0.40;0.38;;;;;;;15.79;52.37;98561.72;5092321;28;20042;-76
2020/12/29 08:06:51;;;;;;;0.50;0.40;;;;;;;15.78;52.14;98573.81;5085420;28;20038;-75
2020/12/29 08:09:16;;;;;;;0.73;0.50;;;;;;;15.76;52.29;98570.41;5048936;28;20110;-75
2020/12/29 08:11:43;;;;;;;0.63;0.43;;;;;;;15.76;51.98;98588.56;5082683;28;20039;-75
2020/12/29 08:14:09;;;;;;;0.43;0.40;;;;;;;15.74;52.21;98585.22;5092388;28;20036;-76
2020/12/29 08:16:34;;;;;;;0.40;0.40;;;;;;;15.75;52.34;98591.25;5083336;28;20036;-75
2020/12/29 08:19:06;;;;;;;0.77;0.50;;;;;;;15.74;52.08;98592.13;5091924;28;20144;-75
2020/12/29 08:21:33;;;;;;;0.50;0.40;;;;;;;15.73;52.26;98593.88;5074113;28;20037;-75
2020/12/29 08:24:01;;;;;;;0.30;0.30;;;;;;;15.74;52.12;98599.91;5091577;28;20094;-75
2020/12/29 08:26:26;;;;;;;1.00;0.50;;;;;;;15.73;52.30;98604.25;5094110;28;20028;-75
2020/12/29 08:28:52;;;;;;;0.55;0.40;;;;;;;15.74;52.25;98610.28;5086613;28;20070;-75
2020/12/29 08:31:19;;;;;;;0.43;0.40;;;;;;;15.74;52.29;98620.66;5075604;28;20028;-75
2020/12/29 08:33:47;;;;;;;0.55;0.43;;;;;;;15.74;52.33;98616.34;5085514;28;20043;-75
2020/12/29 08:36:21;;;;;;;0.75;0.40;;;;;;;15.75;52.16;98624.97;5082268;28;20017;-75
2020/12/29 08:39:12;;;;;;;0.40;0.40;;;;;;;15.75;52.06;98628.38;5088136;28;20099;-75
2020/12/29 08:41:41;;;;;;;0.40;0.40;;;;;;;15.75;52.24;98630.16;5094219;28;20016;-75
2020/12/29 08:44:08;;;;;;;0.88;0.50;;;;;;;15.74;51.97;98631.91;5075385;28;20028;-75
2020/12/29 08:46:35;;;;;;;0.63;0.40;;;;;;;15.74;52.32;98631.91;5092325;28;20500;-75
2020/12/29 08:49:03;;;;;;;0.55;0.40;;;;;;;15.75;52.01;98638.75;5086331;28;20024;-75
2020/12/29 08:51:37;;;;;;;0.40;0.40;;;;;;;15.76;52.31;98642.19;5090346;28;20020;-75
2020/12/29 08:54:14;;;;;;;0.80;0.40;;;;;;;15.74;51.84;98644.88;5090020;28;20482;-75
2020/12/29 08:56:40;;;;;;;0.55;0.40;;;;;;;15.76;52.07;98644.78;5092410;28;20527;-75
2020/12/29 08:59:19;;;;;;;0.43;0.35;;;;;;;15.76;51.73;98653.41;5084894;28;20024;-75
2020/12/29 09:01:47;;;;;;;0.57;0.38;;;;;;;15.75;51.66;98658.66;5090087;28;20015;-75
2020/12/29 09:04:26;;;;;;;0.95;0.40;;;;;;;15.76;51.99;98663.78;5074309;28;20131;-75
2020/12/29 09:07:01;;;;;;;0.65;0.50;;;;;;;15.75;52.00;98656.91;5090701;28;20107;-75
2020/12/29 09:09:28;;;;;;;0.68;0.40;;;;;;;15.75;51.90;98667.28;5090260;28;20024;-76
2020/12/29 09:12:17;;;;;;;0.77;0.50;;;;;;;15.75;51.82;98669.03;5084649;28;20034;-76
2020/12/29 09:14:57;;;;;;;0.65;0.50;;;;;;;15.76;51.83;98670.72;5084097;28;20398;-76
2020/12/29 09:17:24;;;;;;;0.50;0.45;;;;;;;15.75;51.53;98677.66;5089843;28;20024;-76
2020/12/29 09:20:09;;;;;;;0.47;0.40;;;;;;;15.76;51.89;98681.09;5091807;28;20028;-76
2020/12/29 09:22:35;;;;;;;0.60;0.55;;;;;;;15.76;51.76;98675.91;5081889;28;20119;-76
2020/12/29 09:25:01;;;;;;;0.60;0.40;;;;;;;15.76;51.87;98687.13;5091927;28;20082;-76
2020/12/29 09:27:31;;;;;;;0.30;0.30;;;;;;;15.76;51.73;98686.28;5092522;28;20052;-75
2020/12/29 09:29:57;;;;;;;0.70;0.50;;;;;;;15.77;51.75;98690.59;5091625;28;20042;-76
2020/12/29 09:32:24;;;;;;;0.47;0.45;;;;;;;15.77;52.10;98699.19;5091274;28;20039;-76
2020/12/29 09:34:52;;;;;;;0.43;0.30;;;;;;;15.77;51.74;98699.19;5088838;28;20020;-76
2020/12/29 09:37:18;;;;;;;0.93;0.50;;;;;;;15.77;51.69;98700.94;5089910;28;20170;-75
2020/12/29 09:39:44;;;;;;;0.55;0.40;;;;;;;15.78;51.79;98703.47;5089943;28;20123;-75
2020/12/29 09:42:10;;;;;;;1.05;0.55;;;;;;;15.77;51.96;98701.78;5087786;28;20467;-75
2020/12/29 09:44:35;;;;;;;0.80;0.50;;;;;;;15.77;51.81;98712.16;5078500;28;20060;-75
2020/12/29 09:47:00;;;;;;;0.60;0.40;;;;;;;15.79;51.63;98714.72;5076776;28;20033;-75
2020/12/29 09:49:26;;;;;;;0.63;0.50;;;;;;;15.79;51.90;98718.16;5091851;28;20474;-75
2020/12/29 09:51:53;;;;;;;0.50;0.40;;;;;;;15.78;51.84;98721.63;5073166;28;20123;-76
2020/12/29 09:54:18;;;;;;;0.73;0.50;;;;;;;15.80;51.78;98724.16;5091099;28;20028;-75
2020/12/29 09:56:43;;;;;;;0.63;0.40;;;;;;;15.78;51.68;98728.56;5078287;28;20440;-75
2020/12/29 09:59:09;;;;;;;0.40;0.40;;;;;;;15.80;51.58;98748.34;5081170;28;20036;-77
2020/12/29 10:01:34;;;;;;;0.50;0.40;;;;;;;15.80;51.64;98747.50;5094698;28;20032;-76
2020/12/29 10:03:59;;;;;;;1.05;0.52;;;;;;;15.79;51.64;98748.44;5089970;28;20055;-76
2020/12/29 10:06:25;;;;;;;1.05;0.60;;;;;;;15.79;51.59;98753.63;5081410;28;20469;-76
2020/12/29 10:08:50;;;;;;;0.60;0.50;;;;;;;15.78;51.63;98752.75;5094482;28;20074;-76
2020/12/29 10:11:15;;;;;;;1.08;0.60;;;;;;;15.79;51.71;98757.03;5062317;28;20482;-76
2020/12/29 10:13:41;;;;;;;0.63;0.50;;;;;;;15.79;51.50;98757.03;5095449;28;20032;-76
2020/12/29 10:16:06;;;;;;;0.60;0.50;;;;;;;15.80;51.54;98757.88;5093155;28;20043;-76
2020/12/29 10:18:32;;;;;;;0.60;0.50;;;;;;;15.79;51.59;98757.03;5093057;28;20072;-76
2020/12/29 10:20:57;;;;;;;0.45;0.45;;;;;;;15.79;51.33;98754.44;5092500;28;20081;-76
2020/12/29 10:23:22;;;;;;;0.95;0.52;;;;;;;15.80;51.39;98752.69;5095101;28;20085;-76
2020/12/29 10:25:48;;;;;;;1.27;0.63;;;;;;;15.80;51.47;98758.72;5086031;28;20118;-76
2020/12/29 10:28:13;;;;;;;0.93;0.60;;;;;;;15.82;51.53;98763.88;5094366;28;20066;-76
2020/12/29 10:30:38;;;;;;;0.82;0.63;;;;;;;15.83;51.34;98769.00;5094269;28;20048;-76
2020/12/29 10:33:04;;;;;;;0.70;0.50;;;;;;;15.83;51.36;98771.59;5088870;28;20059;-76
2020/12/29 10:35:29;;;;;;;0.85;0.50;;;;;;;15.84;51.27;98770.69;5094744;28;20110;-75
2020/12/29 10:37:55;;;;;;;0.75;0.50;;;;;;;15.84;51.38;98767.25;5076447;28;20032;-75
2020/12/29 10:40:20;;;;;;;0.77;0.50;;;;;;;15.84;51.31;98773.28;5058024;28;20036;-75
2020/12/29 10:42:46;;;;;;;1.10;0.60;;;;;;;15.84;51.28;98773.28;5089250;28;20098;-75
2020/12/29 10:45:12;;;;;;;0.80;0.63;;;;;;;15.87;51.31;98771.47;5088332;28;20039;-75
2020/12/29 10:47:37;;;;;;;1.45;0.70;;;;;;;15.87;51.28;98771.47;5077695;28;20390;-75
2020/12/29 10:50:03;;;;;;;1.10;0.60;;;;;;;15.87;51.35;98774.91;5093210;28;20497;-75
2020/12/29 10:52:28;;;;;;;1.30;0.50;;;;;;;15.88;51.25;98778.38;5072901;28;20032;-75
2020/12/29 10:54:53;;;;;;;0.68;0.50;;;;;;;15.88;51.36;98780.97;5091440;28;20024;-75
2020/12/29 10:57:19;;;;;;;0.63;0.50;;;;;;;15.86;51.33;98788.78;5094196;28;20039;-75
2020/12/29 10:59:44;;;;;;;1.10;0.70;;;;;;;15.85;51.28;98787.09;5094852;28;20031;-75
2020/12/29 11:02:09;;;;;;;0.52;0.50;;;;;;;15.83;51.44;98792.34;5095769;28;20076;-75
2020/12/29 11:04:35;;;;;;;0.60;0.47;;;;;;;15.83;51.53;98794.09;5093555;28;20024;-75
2020/12/29 11:07:01;;;;;;;0.85;0.50;;;;;;;15.83;51.39;98792.34;5088322;28;20115;-75
2020/12/29 11:09:27;;;;;;;0.50;0.40;;;;;;;15.83;51.59;98807.91;5091904;28;20044;-75
2020/12/29 11:11:52;;;;;;;0.80;0.60;;;;;;;15.82;51.26;98807.97;5094507;28;20035;-76
2020/12/29 11:14:17;;;;;;;0.40;0.40;;;;;;;15.81;51.48;98812.31;5091723;28;20162;-76
2020/12/29 11:16:43;;;;;;;0.88;0.45;;;;;;;15.82;51.47;98815.75;5076828;28;20073;-75
2020/12/29 11:19:08;;;;;;;0.60;0.50;;;;;;;15.80;51.57;98820.97;5085477;28;20489;-75
2020/12/29 11:21:33;;;;;;;1.10;0.60;;;;;;;15.80;51.55;98820.13;5075795;28;20036;-75
2020/12/29 11:23:59;;;;;;;0.73;0.50;;;;;;;15.79;51.70;98819.28;5090554;28;20032;-75
2020/12/29 11:26:24;;;;;;;0.68;0.50;;;;;;;15.79;51.49;98821.88;5092218;28;20040;-75
2020/12/29 11:28:50;;;;;;;0.63;0.52;;;;;;;15.79;51.56;98821.88;5094295;28;20082;-75
2020/12/29 11:31:21;;;;;;;0.77;0.60;;;;;;;15.78;51.46;98825.34;5089486;28;20031;-75
2020/12/29 11:33:47;;;;;;;0.40;0.40;;;;;;;15.79;51.43;98821.88;5095109;28;20055;-75